createdAt,value
2023-04-12T00:01:05.911Z,2.70
2023-04-12T00:03:34.557Z,2.70
2023-04-12T00:06:03.595Z,2.90
2023-04-12T00:08:35.464Z,3.00
2023-04-12T00:11:03.851Z,3.30
2023-04-12T00:13:31.342Z,3.30
2023-04-12T00:15:58.958Z,3.20
2023-04-12T00:18:26.362Z,3.00
2023-04-12T00:20:55.656Z,3.00
2023-04-12T00:23:22.987Z,2.70
2023-04-12T00:25:50.693Z,2.60
2023-04-12T00:28:18.068Z,2.50
2023-04-12T00:30:46.126Z,2.40
2023-04-12T00:33:13.474Z,2.40
2023-04-12T00:35:40.896Z,2.40
2023-04-12T00:38:10.859Z,2.40
2023-04-12T00:40:44.373Z,2.40
2023-04-12T00:43:18.522Z,2.50
2023-04-12T00:45:49.098Z,2.70
2023-04-12T00:48:17.495Z,3.00
2023-04-12T00:50:44.896Z,2.90
2023-04-12T00:53:14.730Z,2.80
2023-04-12T00:55:45.369Z,2.70
2023-04-12T00:58:14.330Z,2.90
2023-04-12T01:00:42.034Z,2.80
2023-04-12T01:03:09.655Z,2.80
2023-04-12T01:05:49.267Z,2.70
2023-04-12T01:08:34.239Z,2.20
2023-04-12T01:11:13.239Z,2.30
2023-04-12T01:13:43.317Z,2.10
2023-04-12T01:16:29.984Z,2.00
2023-04-12T01:19:03.770Z,1.80
2023-04-12T01:22:02.665Z,1.90
2023-04-12T01:25:01.636Z,1.80
2023-04-12T01:27:48.402Z,1.80
2023-04-12T01:30:18.640Z,1.70
2023-04-12T01:32:50.824Z,1.80
2023-04-12T01:35:21.252Z,1.70
2023-04-12T01:37:48.871Z,1.80
2023-04-12T01:40:18.278Z,1.80
2023-04-12T01:42:45.681Z,1.80
2023-04-12T01:45:12.891Z,1.80
2023-04-12T01:47:40.358Z,2.00
2023-04-12T01:50:32.158Z,2.10
2023-04-12T01:53:07.142Z,2.20
2023-04-12T01:55:37.381Z,2.40
2023-04-12T01:58:06.105Z,2.50
2023-04-12T02:00:35.698Z,2.60
2023-04-12T02:03:04.106Z,2.30
2023-04-12T02:05:33.129Z,1.80
2023-04-12T02:08:03.560Z,1.70
2023-04-12T02:10:32.014Z,1.80
2023-04-12T02:13:00.649Z,1.80
2023-04-12T02:15:28.954Z,1.90
2023-04-12T02:17:56.644Z,2.20
2023-04-12T02:20:27.331Z,2.20
2023-04-12T02:22:54.934Z,2.20
2023-04-12T02:25:22.194Z,2.10
2023-04-12T02:27:49.384Z,2.00
2023-04-12T02:30:16.686Z,1.70
2023-04-12T02:32:46.954Z,1.60
2023-04-12T02:35:18.427Z,1.50
2023-04-12T02:37:46.872Z,1.40
2023-04-12T02:40:15.665Z,1.20
2023-04-12T02:42:43.947Z,1.20
2023-04-12T02:45:11.968Z,1.40
2023-04-12T02:47:40.809Z,1.60
2023-04-12T02:50:08.686Z,1.50
2023-04-12T02:52:36.004Z,1.50
2023-04-12T02:55:03.858Z,1.50
2023-04-12T02:57:31.105Z,1.50
2023-04-12T02:59:58.379Z,1.50
2023-04-12T03:02:26.156Z,1.40
2023-04-12T03:04:54.973Z,1.30
2023-04-12T03:07:23.023Z,1.20
2023-04-12T03:09:51.023Z,1.10
2023-04-12T03:12:18.273Z,1.00
2023-04-12T03:14:45.437Z,1.00
2023-04-12T03:17:12.631Z,1.00
2023-04-12T03:19:40.139Z,1.00
2023-04-12T03:22:07.478Z,1.00
2023-04-12T03:24:34.883Z,1.10
2023-04-12T03:27:03.678Z,1.10
2023-04-12T03:29:31.707Z,0.90
2023-04-12T03:31:59.657Z,0.90
2023-04-12T03:34:32.551Z,1.00
2023-04-12T03:37:03.803Z,1.20
2023-04-12T03:39:31.156Z,1.20
2023-04-12T03:41:58.434Z,1.30
2023-04-12T03:44:26.297Z,1.00
2023-04-12T03:46:54.174Z,1.00
2023-04-12T03:49:21.937Z,0.80
2023-04-12T03:51:51.004Z,0.60
2023-04-12T03:54:18.314Z,0.60
2023-04-12T03:56:46.409Z,0.80
2023-04-12T03:59:14.840Z,1.00
2023-04-12T04:01:43.475Z,1.30
2023-04-12T04:04:11.136Z,1.60
2023-04-12T04:06:39.001Z,1.70
2023-04-12T04:09:06.912Z,1.30
2023-04-12T04:11:35.345Z,1.30
2023-04-12T04:14:02.626Z,1.10
2023-04-12T04:16:31.029Z,1.00
2023-04-12T04:18:58.377Z,0.90
2023-04-12T04:21:26.623Z,0.60
2023-04-12T04:23:54.210Z,0.50
2023-04-12T04:26:31.354Z,0.30
2023-04-12T04:29:01.816Z,0.40
2023-04-12T04:31:34.570Z,0.30
2023-04-12T04:34:03.808Z,0.40
2023-04-12T04:36:35.321Z,0.40
2023-04-12T04:39:03.666Z,0.80
2023-04-12T04:41:34.674Z,0.90
2023-04-12T04:44:04.702Z,0.70
2023-04-12T04:46:32.202Z,0.70
2023-04-12T04:49:00.165Z,1.00
2023-04-12T04:51:27.674Z,0.90
2023-04-12T04:53:55.291Z,1.00
2023-04-12T04:56:23.360Z,1.10
2023-04-12T04:58:50.938Z,1.00
2023-04-12T05:01:18.278Z,1.10
2023-04-12T05:03:45.646Z,1.10
2023-04-12T05:06:13.035Z,1.00
2023-04-12T05:08:40.895Z,1.30
2023-04-12T05:11:08.190Z,1.40
2023-04-12T05:13:35.368Z,1.80
2023-04-12T05:16:08.059Z,2.00
2023-04-12T05:18:35.896Z,2.10
2023-04-12T05:21:04.525Z,2.50
2023-04-12T05:23:42.238Z,2.70
2023-04-12T05:26:09.481Z,3.00
2023-04-12T05:28:36.813Z,3.20
2023-04-12T05:31:04.631Z,3.40
2023-04-12T05:33:34.567Z,3.50
2023-04-12T05:36:01.955Z,3.70
2023-04-12T05:38:29.245Z,3.90
2023-04-12T05:40:56.470Z,3.90
2023-04-12T05:43:23.702Z,4.00
2023-04-12T05:45:51.785Z,4.30
2023-04-12T05:48:19.356Z,4.10
2023-04-12T05:50:53.659Z,4.20
2023-04-12T05:53:22.378Z,3.90
2023-04-12T05:55:49.636Z,3.90
2023-04-12T05:58:16.840Z,3.90
2023-04-12T06:00:45.266Z,4.10
2023-04-12T06:03:12.904Z,4.30
2023-04-12T06:05:40.334Z,4.50
2023-04-12T06:08:08.607Z,4.60
2023-04-12T06:10:36.125Z,4.90
2023-04-12T06:13:03.395Z,5.00
2023-04-12T06:15:32.165Z,5.10
2023-04-12T06:18:00.565Z,5.30
2023-04-12T06:20:28.153Z,5.40
2023-04-12T06:22:55.442Z,5.60
2023-04-12T06:25:23.206Z,5.60
2023-04-12T06:27:50.551Z,5.80
2023-04-12T06:30:18.741Z,5.90
2023-04-12T06:32:46.233Z,6.00
2023-04-12T06:35:13.853Z,6.00
2023-04-12T06:37:41.519Z,6.20
2023-04-12T06:40:09.286Z,6.30
2023-04-12T06:42:37.005Z,6.40
2023-04-12T06:45:05.008Z,6.60
2023-04-12T06:47:32.961Z,6.80
2023-04-12T06:50:00.491Z,7.00
2023-04-12T06:52:28.112Z,7.10
2023-04-12T06:54:56.926Z,7.20
2023-04-12T06:57:24.558Z,7.50
2023-04-12T06:59:52.268Z,7.60
2023-04-12T07:02:19.737Z,7.70
2023-04-12T07:04:47.423Z,7.90
2023-04-12T07:07:14.701Z,8.00
2023-04-12T07:09:43.185Z,8.20
2023-04-12T07:12:10.405Z,8.40
2023-04-12T07:14:37.656Z,8.70
2023-04-12T07:17:04.886Z,8.90
2023-04-12T07:19:32.424Z,9.20
2023-04-12T07:21:59.657Z,9.30
2023-04-12T07:24:26.883Z,9.60
2023-04-12T07:26:55.094Z,9.60
2023-04-12T07:29:22.369Z,9.60
2023-04-12T07:31:49.668Z,9.50
2023-04-12T07:34:17.161Z,9.60
2023-04-12T07:36:45.044Z,9.70
2023-04-12T07:39:12.659Z,9.90
2023-04-12T07:41:40.000Z,9.90
2023-04-12T07:44:07.186Z,10.10
2023-04-12T07:46:34.657Z,10.30
2023-04-12T07:49:01.876Z,10.30
2023-04-12T07:51:29.166Z,10.40
2023-04-12T07:53:56.708Z,10.50
2023-04-12T07:56:24.120Z,10.40
2023-04-12T07:58:51.357Z,10.60
2023-04-12T08:01:18.572Z,10.40
2023-04-12T08:03:48.178Z,10.40
2023-04-12T08:06:15.737Z,10.60
2023-04-12T08:08:43.392Z,10.70
2023-04-12T08:11:10.916Z,11.00
2023-04-12T08:13:38.183Z,11.00
2023-04-12T08:16:06.784Z,11.10
2023-04-12T08:18:34.068Z,11.20
2023-04-12T08:21:01.406Z,11.50
2023-04-12T08:23:28.738Z,11.30
2023-04-12T08:26:03.780Z,11.40
2023-04-12T08:28:31.468Z,11.50
2023-04-12T08:30:59.668Z,11.60
2023-04-12T08:33:27.324Z,11.50
2023-04-12T08:35:55.347Z,11.80
2023-04-12T08:38:30.581Z,11.40
2023-04-12T08:41:09.146Z,11.40
2023-04-12T08:43:38.076Z,11.60
2023-04-12T08:46:06.205Z,11.70
2023-04-12T08:48:34.246Z,11.50
2023-04-12T08:51:02.107Z,11.80
2023-04-12T08:53:31.322Z,11.90
2023-04-12T08:55:58.788Z,11.70
2023-04-12T08:58:26.544Z,11.70
2023-04-12T09:00:54.635Z,11.70
2023-04-12T09:03:22.105Z,11.70
2023-04-12T09:05:49.638Z,11.80
2023-04-12T09:08:17.652Z,12.00
2023-04-12T09:10:45.028Z,11.70
2023-04-12T09:13:12.384Z,11.70
2023-04-12T09:15:49.670Z,11.80
2023-04-12T09:18:17.516Z,11.90
2023-04-12T09:20:44.961Z,12.20
2023-04-12T09:23:24.722Z,12.20
2023-04-12T09:25:53.639Z,12.40
2023-04-12T09:28:22.409Z,12.60
2023-04-12T09:30:51.961Z,12.80
2023-04-12T09:33:24.526Z,12.50
2023-04-12T09:36:01.803Z,12.50
2023-04-12T09:38:30.864Z,12.30
2023-04-12T09:41:15.043Z,12.90
2023-04-12T09:43:42.306Z,12.90
2023-04-12T09:46:14.095Z,12.80
2023-04-12T09:48:48.590Z,13.20
2023-04-12T09:51:33.941Z,13.60
2023-04-12T09:54:03.329Z,13.10
2023-04-12T09:56:33.363Z,13.70
2023-04-12T09:59:05.446Z,13.60
2023-04-12T10:01:38.694Z,13.60
2023-04-12T10:04:08.298Z,13.90
2023-04-12T10:06:41.550Z,14.00
2023-04-12T10:09:09.396Z,13.60
2023-04-12T10:11:40.618Z,13.80
2023-04-12T10:14:08.903Z,14.30
2023-04-12T10:16:36.901Z,14.20
2023-04-12T10:19:04.592Z,14.00
2023-04-12T10:21:32.106Z,13.60
2023-04-12T10:24:00.682Z,13.30
2023-04-12T10:26:28.285Z,13.60
2023-04-12T10:29:36.516Z,13.60
2023-04-12T10:32:26.115Z,14.10
2023-04-12T10:34:54.030Z,14.10
2023-04-12T10:37:21.473Z,14.20
2023-04-12T10:39:55.920Z,14.30
2023-04-12T10:42:28.165Z,14.60
2023-04-12T10:44:58.111Z,14.50
2023-04-12T10:47:49.186Z,14.90
2023-04-12T10:50:31.295Z,14.50
2023-04-12T10:53:13.353Z,14.60
2023-04-12T10:55:42.639Z,14.70
2023-04-12T10:58:10.446Z,14.70
2023-04-12T11:01:10.096Z,15.00
2023-04-12T11:03:37.647Z,14.60
2023-04-12T11:06:19.964Z,14.50
2023-04-12T11:08:56.831Z,14.70
2023-04-12T11:11:27.133Z,14.90
2023-04-12T11:13:59.375Z,15.20
2023-04-12T11:16:26.673Z,15.40
2023-04-12T11:18:54.250Z,15.30
2023-04-12T11:21:22.504Z,15.20
2023-04-12T11:23:53.737Z,15.30
2023-04-12T11:26:22.142Z,15.30
2023-04-12T11:28:53.220Z,15.20
2023-04-12T11:31:21.665Z,15.20
2023-04-12T11:33:48.944Z,15.40
2023-04-12T11:36:17.188Z,15.50
2023-04-12T11:38:46.324Z,14.90
2023-04-12T11:41:15.573Z,15.10
2023-04-12T11:43:42.912Z,15.00
2023-04-12T11:46:10.694Z,14.80
2023-04-12T11:48:38.944Z,15.10
2023-04-12T11:51:24.923Z,15.00
2023-04-12T11:53:54.493Z,15.30
2023-04-12T11:56:22.436Z,15.20
2023-04-12T11:58:50.173Z,15.50
2023-04-12T12:01:19.966Z,15.90
2023-04-12T12:03:48.162Z,15.60
2023-04-12T12:06:16.706Z,16.20
2023-04-12T12:08:44.463Z,16.20
2023-04-12T12:11:12.192Z,15.70
2023-04-12T12:13:49.796Z,15.90
2023-04-12T12:16:18.730Z,16.10
2023-04-12T12:18:50.967Z,15.80
2023-04-12T12:21:20.284Z,15.70
2023-04-12T12:23:48.957Z,15.60
2023-04-12T12:26:24.330Z,15.30
2023-04-12T12:28:53.747Z,15.30
2023-04-12T12:31:23.369Z,15.50
2023-04-12T12:33:55.569Z,15.00
2023-04-12T12:36:33.481Z,15.10
2023-04-12T12:39:18.913Z,15.10
2023-04-12T12:41:56.659Z,15.50
2023-04-12T12:44:24.816Z,15.40
2023-04-12T12:46:56.698Z,15.60
2023-04-12T12:49:28.496Z,16.10
2023-04-12T12:51:59.015Z,16.40
2023-04-12T12:56:56.842Z,15.80
2023-04-12T12:59:25.883Z,15.70
2023-04-12T13:01:53.319Z,16.20
2023-04-12T13:04:21.189Z,16.30
2023-04-12T13:06:48.471Z,16.40
2023-04-12T13:09:15.737Z,16.50
2023-04-12T13:11:42.928Z,16.80
2023-04-12T13:14:10.185Z,16.60
2023-04-12T13:16:37.456Z,16.80
2023-04-12T13:19:04.668Z,17.00
2023-04-12T13:21:32.072Z,17.10
2023-04-12T13:23:59.249Z,16.90
2023-04-12T13:26:29.490Z,16.70
2023-04-12T13:28:56.982Z,17.20
2023-04-12T13:31:24.705Z,16.90
2023-04-12T13:33:52.228Z,16.20
2023-04-12T13:36:19.399Z,16.20
2023-04-12T13:38:46.841Z,15.90
2023-04-12T13:41:14.058Z,15.80
2023-04-12T13:43:41.569Z,16.10
2023-04-12T13:46:08.803Z,16.10
2023-04-12T13:48:36.001Z,16.30
2023-04-12T13:51:04.218Z,16.40
2023-04-12T13:53:31.518Z,16.30
2023-04-12T13:55:58.922Z,16.50
2023-04-12T13:58:26.143Z,16.80
2023-04-12T14:00:56.169Z,16.80
2023-04-12T14:03:23.949Z,16.50
2023-04-12T14:05:51.843Z,16.30
2023-04-12T14:08:19.082Z,16.20
2023-04-12T14:10:46.410Z,16.20
2023-04-12T14:13:13.713Z,16.10
2023-04-12T14:15:41.201Z,16.20
2023-04-12T14:18:08.467Z,15.90
2023-04-12T14:20:35.969Z,16.10
2023-04-12T14:23:04.065Z,15.80
2023-04-12T14:25:32.124Z,15.90
2023-04-12T14:27:59.364Z,15.90
2023-04-12T14:30:27.172Z,15.80
2023-04-12T14:32:54.527Z,15.70
2023-04-12T14:35:22.535Z,15.40
2023-04-12T14:37:49.899Z,15.30
2023-04-12T14:40:18.608Z,15.50
2023-04-12T14:42:45.988Z,15.20
2023-04-12T14:45:13.358Z,15.40
2023-04-12T14:47:41.721Z,15.10
2023-04-12T14:50:09.451Z,15.30
2023-04-12T14:52:36.681Z,15.60
2023-04-12T14:55:04.338Z,15.70
2023-04-12T14:57:31.740Z,15.60
2023-04-12T14:59:59.064Z,15.20
2023-04-12T15:02:26.553Z,15.30
2023-04-12T15:04:54.095Z,15.30
2023-04-12T15:07:21.440Z,15.00
2023-04-12T15:09:48.707Z,15.10
2023-04-12T15:12:17.247Z,15.10
2023-04-12T15:14:44.477Z,15.00
2023-04-12T15:17:11.749Z,15.10
2023-04-12T15:19:38.939Z,15.10
2023-04-12T15:22:06.273Z,15.20
2023-04-12T15:24:34.761Z,15.00
2023-04-12T15:27:03.757Z,15.00
2023-04-12T15:29:33.531Z,15.10
2023-04-12T15:32:01.402Z,15.20
2023-04-12T15:34:30.184Z,15.00
2023-04-12T15:36:57.516Z,14.80
2023-04-12T15:39:24.932Z,15.10
2023-04-12T15:41:52.153Z,14.90
2023-04-12T15:44:19.458Z,15.00
2023-04-12T15:46:56.014Z,14.80
2023-04-12T15:49:27.257Z,15.00
2023-04-12T15:51:58.453Z,14.70
2023-04-12T15:54:25.765Z,14.70
2023-04-12T15:56:52.993Z,14.50
2023-04-12T15:59:20.351Z,14.40
2023-04-12T16:01:48.734Z,14.60
2023-04-12T16:04:19.018Z,14.60
2023-04-12T16:06:46.586Z,14.80
2023-04-12T16:09:14.531Z,14.90
2023-04-12T16:11:43.750Z,14.90
2023-04-12T16:14:10.988Z,14.80
2023-04-12T16:16:40.447Z,14.60
2023-04-12T16:19:08.455Z,14.70
2023-04-12T16:21:36.582Z,14.60
2023-04-12T16:24:04.912Z,14.70
2023-04-12T16:26:32.186Z,14.30
2023-04-12T16:29:01.320Z,14.30
2023-04-12T16:31:29.671Z,14.10
2023-04-12T16:33:57.069Z,14.10
2023-04-12T16:36:24.531Z,14.40
2023-04-12T16:38:55.212Z,14.30
2023-04-12T16:41:23.244Z,14.50
2023-04-12T16:43:53.657Z,14.30
2023-04-12T16:46:22.424Z,14.40
2023-04-12T16:48:49.850Z,14.20
2023-04-12T16:51:17.641Z,14.20
2023-04-12T16:53:44.861Z,14.10
2023-04-12T16:56:12.152Z,13.70
2023-04-12T16:58:39.349Z,13.80
2023-04-12T17:01:08.003Z,13.70
2023-04-12T17:03:35.369Z,13.40
2023-04-12T17:06:02.758Z,13.40
2023-04-12T17:08:29.958Z,13.30
2023-04-12T17:10:57.457Z,13.30
2023-04-12T17:13:24.631Z,13.20
2023-04-12T17:15:51.968Z,13.20
2023-04-12T17:18:19.252Z,13.20
2023-04-12T17:20:46.473Z,13.20
2023-04-12T17:23:15.851Z,13.30
2023-04-12T17:25:43.643Z,13.00
2023-04-12T17:28:10.993Z,13.10
2023-04-12T17:30:38.548Z,12.80
2023-04-12T17:33:07.470Z,12.30
2023-04-12T17:35:35.354Z,12.20
2023-04-12T17:38:02.551Z,12.10
2023-04-12T17:40:29.851Z,12.10
2023-04-12T17:42:57.100Z,12.00
2023-04-12T17:45:24.514Z,11.80
2023-04-12T17:47:51.781Z,11.70
2023-04-12T17:50:19.029Z,11.30
2023-04-12T17:52:46.960Z,11.40
2023-04-12T17:55:14.455Z,11.20
2023-04-12T17:57:42.188Z,11.10
2023-04-12T18:00:11.927Z,11.00
2023-04-12T18:02:40.869Z,10.90
2023-04-12T18:05:08.552Z,10.80
2023-04-12T18:07:35.873Z,10.70
2023-04-12T18:10:03.570Z,10.50
2023-04-12T18:12:31.310Z,10.40
2023-04-12T18:14:58.973Z,10.50
2023-04-12T18:17:26.865Z,10.40
2023-04-12T18:19:54.783Z,10.30
2023-04-12T18:22:22.673Z,10.40
2023-04-12T18:24:49.925Z,10.40
2023-04-12T18:27:17.240Z,10.40
2023-04-12T18:29:44.850Z,10.20
2023-04-12T18:32:12.688Z,10.20
2023-04-12T18:34:39.881Z,10.10
2023-04-12T18:37:07.628Z,9.90
2023-04-12T18:39:35.929Z,10.00
2023-04-12T18:42:03.304Z,10.00
2023-04-12T18:44:32.601Z,10.00
2023-04-12T18:46:59.887Z,9.90
2023-04-12T18:49:27.713Z,9.90
2023-04-12T18:51:58.219Z,9.80
2023-04-12T18:54:27.630Z,9.90
2023-04-12T18:56:55.230Z,9.90
2023-04-12T18:59:22.532Z,9.80
2023-04-12T19:01:49.811Z,9.80
2023-04-12T19:04:18.191Z,9.80
2023-04-12T19:06:47.304Z,9.90
2023-04-12T19:09:15.030Z,9.80
2023-04-12T19:11:42.348Z,9.60
2023-04-12T19:14:09.694Z,9.60
2023-04-12T19:16:37.922Z,9.60
2023-04-12T19:19:05.382Z,9.50
2023-04-12T19:21:33.698Z,9.40
2023-04-12T19:24:01.246Z,9.50
2023-04-12T19:26:30.325Z,9.40
2023-04-12T19:28:58.876Z,9.40
2023-04-12T19:31:26.645Z,9.40
2023-04-12T19:33:57.438Z,9.10
2023-04-12T19:36:24.984Z,9.00
2023-04-12T19:38:52.598Z,9.00
2023-04-12T19:41:20.788Z,9.00
2023-04-12T19:43:48.229Z,9.10
2023-04-12T19:46:15.652Z,9.10
2023-04-12T19:48:43.396Z,9.10
2023-04-12T19:51:10.955Z,9.30
2023-04-12T19:53:39.107Z,9.20
2023-04-12T19:56:06.680Z,9.00
2023-04-12T19:58:34.729Z,8.80
2023-04-12T20:01:02.943Z,8.80
2023-04-12T20:03:30.797Z,8.70
2023-04-12T20:06:04.646Z,8.70
2023-04-12T20:08:34.020Z,8.50
2023-04-12T20:11:01.978Z,8.60
2023-04-12T20:13:30.801Z,8.70
2023-04-12T20:16:00.819Z,8.70
2023-04-12T20:18:29.679Z,8.60
2023-04-12T20:21:00.132Z,8.50
2023-04-12T20:23:28.189Z,8.50
2023-04-12T20:25:55.755Z,8.50
2023-04-12T20:28:23.572Z,8.50
2023-04-12T20:30:50.979Z,8.50
2023-04-12T20:33:19.992Z,8.40
2023-04-12T20:35:47.246Z,8.40
2023-04-12T20:38:15.230Z,8.50
2023-04-12T20:40:42.408Z,8.30
2023-04-12T20:43:10.533Z,8.30
2023-04-12T20:45:38.062Z,8.30
2023-04-12T20:48:05.518Z,8.40
2023-04-12T20:50:35.438Z,8.40
2023-04-12T20:53:02.686Z,8.50
2023-04-12T20:55:32.745Z,8.50
2023-04-12T20:58:01.172Z,8.60
2023-04-12T21:00:29.669Z,8.30
2023-04-12T21:02:58.567Z,8.40
2023-04-12T21:05:27.353Z,8.40
2023-04-12T21:07:54.882Z,8.30
2023-04-12T21:10:22.368Z,8.10
2023-04-12T21:12:50.165Z,8.10
2023-04-12T21:15:22.100Z,8.20
2023-04-12T21:17:50.746Z,8.10
2023-04-12T21:20:18.716Z,8.00
2023-04-12T21:22:47.943Z,7.90
2023-04-12T21:25:16.890Z,7.90
2023-04-12T21:27:47.074Z,7.80
2023-04-12T21:30:15.760Z,7.80
2023-04-12T21:32:43.902Z,7.90
2023-04-12T21:35:11.581Z,8.10
2023-04-12T21:37:39.894Z,8.30
2023-04-12T21:40:09.411Z,8.40
2023-04-12T21:42:37.449Z,8.40
2023-04-12T21:45:06.038Z,8.60
2023-04-12T21:47:33.708Z,8.50
2023-04-12T21:50:01.392Z,8.60
2023-04-12T21:52:28.612Z,8.60
2023-04-12T21:54:56.030Z,8.70
2023-04-12T21:57:23.268Z,8.60
2023-04-12T21:59:50.537Z,8.50
2023-04-12T22:02:17.825Z,8.40
2023-04-12T22:04:45.453Z,8.40
2023-04-12T22:07:13.229Z,8.30
2023-04-12T22:09:41.531Z,8.30
2023-04-12T22:12:12.111Z,8.20
2023-04-12T22:14:46.549Z,8.10
2023-04-12T22:17:14.977Z,8.10
2023-04-12T22:19:42.426Z,8.00
2023-04-12T22:22:10.856Z,7.90
2023-04-12T22:24:38.870Z,8.00
2023-04-12T22:27:07.008Z,8.00
2023-04-12T22:29:34.637Z,8.10
2023-04-12T22:32:02.489Z,8.00
2023-04-12T22:34:29.754Z,8.00
2023-04-12T22:36:59.865Z,8.00
2023-04-12T22:39:27.321Z,8.10
2023-04-12T22:41:57.464Z,8.00
2023-04-12T22:44:26.332Z,8.00
2023-04-12T22:46:55.252Z,8.00
2023-04-12T22:49:28.098Z,8.00
2023-04-12T22:51:56.326Z,8.10
2023-04-12T22:54:26.583Z,8.00
2023-04-12T22:56:54.776Z,8.20
2023-04-12T22:59:23.076Z,8.30
2023-04-12T23:01:52.560Z,8.40
2023-04-12T23:04:20.338Z,8.30
2023-04-12T23:06:47.738Z,8.30
2023-04-12T23:09:15.533Z,8.30
2023-04-12T23:11:43.012Z,8.20
2023-04-12T23:14:10.630Z,8.10
2023-04-12T23:16:44.506Z,8.10
2023-04-12T23:19:12.829Z,7.90
2023-04-12T23:21:43.375Z,7.90
2023-04-12T23:24:17.936Z,7.80
2023-04-12T23:26:45.823Z,7.80
2023-04-12T23:29:13.877Z,7.70
2023-04-12T23:31:41.625Z,7.90
2023-04-12T23:34:08.849Z,7.90
2023-04-12T23:36:36.324Z,7.90
2023-04-12T23:39:08.592Z,8.00
2023-04-12T23:41:36.327Z,8.10
2023-04-12T23:44:03.811Z,8.20
2023-04-12T23:46:31.339Z,8.20
2023-04-12T23:48:58.618Z,8.30
2023-04-12T23:51:27.254Z,8.40
2023-04-12T23:53:54.687Z,8.40
2023-04-12T23:56:22.068Z,8.40
2023-04-12T23:58:49.284Z,8.20
